Coupland, TX (78615)

1:49 PM CDT on September 04, 2015 (GMT -0500)
Central Taylor | | Change Station
CLOSE
Current Station
Personal Weather Station
Location: Taylor, TX
Elevation: 582 ft
Nearby Weather Stations

Elev 582 ft 30.57 °N, 97.42 °W | Updated 3 seconds ago

Mostly Cloudy
Mostly Cloudy
88.2 °F
Feels Like 93 °F
N
0.0
Wind Variable Wind from ENE
Gusts 0.0 mph

Today
High -- | Low -- °F
--% Chance of Precip.
Yesterday
High -- | Low -- °F
Precip. -- in
7:07 AM 7:48 PM
Waning Gibbous, 57% visible
Pressure 29.94 in
Visibility 10.0 miles
Clouds Few 4400 ft
Scattered Clouds 5500 ft
Mostly Cloudy 6500 ft
Heat Index 93 °F
Dew Point 69 °F
Humidity 54%
Rainfall 0.00 in
Snow Depth Not available.
UV 6 out of 12
Pollen 7.50 out of 12
Air Quality Not available.
Flu Activity Not available.
METAR KEDC 041835Z AUTO 21004KT 10SM FEW044 SCT055 BKN065 33/21 A2994 RMK AO2
Pressure 29.94 in
Visibility 10.0 miles
Clouds Few 4400 ft
Scattered Clouds 5500 ft
Mostly Cloudy 6500 ft
Heat Index 93 °F
Dew Point 69 °F
Humidity 54%
Rainfall 0.00 in
Snow Depth Not available.
UV 6 out of 12
Pollen 7.50 out of 12
Air Quality Not available.
Flu Activity Not available.
METAR KEDC 041835Z AUTO 21004KT 10SM FEW044 SCT055 BKN065 33/21 A2994 RMK AO2

10-Day Weather Forecast

×

Almanac

Astronomy

Sep. 04, 2015 Rise Set
Actual Time
Civil Twilight
Nautical Twilight
Astronomical Twilight
Moon
Length of Visible Light
Length of Day
Tomorrow will be .
, % of the Moon is Illuminated

Today's Extremes

State Highs State Lows

Community

WunderPhotos

Upload Photos

1,852,262 photos uploaded!

WunderBlogs® & News

Nearby

Air Quality

  Air Quality AQ Index Pollutant
Not available.

Snow Depth

Station Depth Elevation

Earthquake Activity

City Distance Mag. Time & Date
Minimum magnitude displayed is 2.5.

Coastal Water Temperatures

Place Temperature

Stations

Nearby Weather Stations

Station Location Temp. Windchill Dew Point Humidity Wind Precip. Elev Updated Type